Terminal Aerodrome Forecast
Issued by NWS Jackson, MS

Home | Current Version | Previous Version | Text Only | Print | Product List | Glossary On
Versions: 1 2 3 4 5 6 7 8 9 10 11 12
000
FTUS44 KJAN 202327
TAFGWO
TAF
KGWO 202327Z 2100/2124 19008KT P6SM SCT100
     FM210500 16005KT P6SM -RA BKN040 OVC060
     FM210900 15005KT 5SM SHRA BR OVC015
     FM211200 15004KT 4SM -RA BR OVC007
     FM211800 13004KT P6SM -SHRA BKN015=

USA.gov is the U.S. government's official web portal to all federal, state and local government web resources and services.